Time;durP1;ratioP1;P1;durP2;ratioP2;P2;SDS_P1;SDS_P2;PMS_P1;PMS_P2;Temp;Humidity;BMP_temperature;BMP_pressure;BME280_temperature;BME280_humidity;BME280_pressure;Samples;Min_cycle;Max_cycle;Signal;HPM_P1;HPM_P2
2022/10/08 00:00:46;;;;;;;15.57;10.40;;;14.40;99.90;;;;;;4953998;28;20752;-71
2022/10/08 00:03:14;;;;;;;15.40;11.23;;;14.30;99.90;;;;;;4954496;28;20417;-72
2022/10/08 00:05:40;;;;;;;18.33;11.70;;;14.30;99.90;;;;;;4954124;28;20420;-72
2022/10/08 00:08:06;;;;;;;14.50;10.77;;;14.20;99.90;;;;;;4954582;28;20426;-72
2022/10/08 00:10:32;;;;;;;19.00;12.03;;;14.10;99.90;;;;;;4954391;28;20749;-72
2022/10/08 00:12:59;;;;;;;12.20;11.00;;;14.10;99.90;;;;;;4954028;28;20538;-72
2022/10/08 00:15:25;;;;;;;19.23;12.03;;;14.00;99.90;;;;;;4954246;29;20271;-72
2022/10/08 00:17:51;;;;;;;15.67;11.17;;;13.90;99.90;;;;;;4947177;29;20954;-73
2022/10/08 00:20:17;;;;;;;19.80;11.97;;;13.90;99.90;;;;;;4953290;28;20195;-73
2022/10/08 00:22:42;;;;;;;12.30;11.00;;;13.80;99.90;;;;;;4953672;29;20848;-72
2022/10/08 00:25:09;;;;;;;13.37;12.03;;;13.80;99.90;;;;;;4954090;28;20260;-73
2022/10/08 00:27:35;;;;;;;13.70;12.30;;;13.70;99.90;;;;;;4953872;28;20181;-73
2022/10/08 00:30:00;;;;;;;13.10;10.60;;;13.60;99.90;;;;;;4953943;28;20420;-72
2022/10/08 00:32:26;;;;;;;15.60;11.93;;;13.60;99.90;;;;;;4953574;29;20467;-72
2022/10/08 00:34:51;;;;;;;17.80;11.20;;;13.50;99.90;;;;;;4955361;29;20267;-73
2022/10/08 00:37:17;;;;;;;16.90;13.03;;;13.50;99.90;;;;;;4955240;28;20200;-72
2022/10/08 00:39:43;;;;;;;13.00;10.90;;;13.50;99.90;;;;;;4954195;29;20320;-72
2022/10/08 00:42:11;;;;;;;18.50;11.90;;;13.40;99.90;;;;;;4954374;29;20201;-72
2022/10/08 00:44:50;;;;;;;12.23;11.03;;;13.40;99.90;;;;;;4954864;28;20535;-72
2022/10/08 00:47:18;;;;;;;13.30;11.67;;;13.40;99.90;;;;;;4952016;29;20426;-72
2022/10/08 00:49:44;;;;;;;13.43;12.10;;;13.40;99.90;;;;;;4953672;28;20838;-72
2022/10/08 00:52:10;;;;;;;14.27;11.10;;;13.30;99.90;;;;;;4953358;28;20447;-72
2022/10/08 00:54:36;;;;;;;13.77;11.00;;;13.30;99.90;;;;;;4953623;28;20940;-72
2022/10/08 00:57:01;;;;;;;19.67;11.90;;;13.20;99.90;;;;;;4954010;28;20185;-72
2022/10/08 00:59:27;;;;;;;14.57;12.33;;;13.20;99.90;;;;;;4954439;29;20197;-72
2022/10/08 02:32:39;;;;;;;10.77;9.67;;;13.20;99.90;;;;;;5254058;23;20512;-71
2022/10/08 02:35:18;;;;;;;15.17;11.80;;;13.20;99.90;;;;;;4943759;29;20793;-71
2022/10/08 02:38:12;;;;;;;12.60;11.30;;;13.20;99.90;;;;;;4944533;28;20467;-71
2022/10/08 02:40:41;;;;;;;12.07;10.87;;;13.20;99.90;;;;;;4945003;29;20448;-71
2022/10/08 02:43:12;;;;;;;12.37;11.00;;;13.20;99.90;;;;;;4943261;29;20439;-71
2022/10/08 02:45:47;;;;;;;12.40;10.83;;;13.20;99.90;;;;;;4948127;28;20432;-71
2022/10/08 02:48:24;;;;;;;15.10;11.43;;;13.20;99.90;;;;;;4952861;28;20431;-71
2022/10/08 02:50:52;;;;;;;16.93;11.53;;;13.10;99.90;;;;;;4951570;29;20416;-71
2022/10/08 02:53:18;;;;;;;14.30;11.23;;;13.10;99.90;;;;;;4953007;28;20444;-71
2022/10/08 02:56:00;;;;;;;15.83;11.40;;;13.10;99.90;;;;;;4944910;29;20413;-71
2022/10/08 02:58:25;;;;;;;11.80;9.37;;;13.10;99.90;;;;;;4951982;28;20417;-72
2022/10/08 03:01:16;;;;;;;13.30;10.40;;;13.10;99.90;;;;;;4955406;28;20494;-72
2022/10/08 03:03:53;;;;;;;12.93;11.50;;;13.10;99.90;;;;;;4954188;28;20219;-71
2022/10/08 03:06:20;;;;;;;16.50;10.93;;;13.10;99.90;;;;;;4947636;28;20452;-71
2022/10/08 03:08:48;;;;;;;15.27;10.70;;;13.10;99.90;;;;;;4953187;29;20443;-71
2022/10/08 03:11:14;;;;;;;14.30;10.10;;;13.10;99.90;;;;;;4947521;28;20487;-72
2022/10/08 03:13:44;;;;;;;10.80;9.27;;;13.20;99.90;;;;;;4954197;28;20429;-71
2022/10/08 03:16:14;;;;;;;14.07;10.93;;;13.20;99.90;;;;;;4944676;29;20443;-71
2022/10/08 03:18:40;;;;;;;13.83;9.67;;;13.20;99.90;;;;;;4954127;28;20420;-71
2022/10/08 03:21:14;;;;;;;10.67;9.57;;;13.20;99.90;;;;;;4945235;28;20546;-71
2022/10/08 03:23:40;;;;;;;12.97;9.83;;;13.20;99.90;;;;;;4953030;28;20475;-71
2022/10/08 03:26:06;;;;;;;13.50;11.63;;;13.20;99.90;;;;;;4947624;28;20444;-71
2022/10/08 03:28:32;;;;;;;11.67;10.20;;;13.10;99.90;;;;;;4955307;28;20181;-72
2022/10/08 03:31:02;;;;;;;17.37;9.07;;;13.20;99.90;;;;;;4940678;28;20460;-71
2022/10/08 03:33:27;;;;;;;12.50;9.23;;;13.20;99.90;;;;;;4949013;28;20444;-72
2022/10/08 03:35:52;;;;;;;10.50;9.50;;;13.20;99.90;;;;;;4949685;29;20943;-71
2022/10/08 03:38:18;;;;;;;10.97;9.03;;;13.20;99.90;;;;;;4949779;28;20220;-71
2022/10/08 03:40:53;;;;;;;13.43;9.37;;;13.30;99.90;;;;;;4951147;29;20247;-72
2022/10/08 03:43:19;;;;;;;16.03;10.73;;;13.30;99.90;;;;;;4947518;28;20215;-71
2022/10/08 03:45:52;;;;;;;17.10;9.40;;;13.30;99.90;;;;;;4942945;29;20453;-71
2022/10/08 03:48:19;;;;;;;15.17;9.70;;;13.30;99.90;;;;;;4953705;28;20598;-71
2022/10/08 03:51:02;;;;;;;12.40;9.40;;;13.30;99.90;;;;;;4945432;28;20933;-71
2022/10/08 03:53:31;;;;;;;13.87;9.97;;;13.30;99.90;;;;;;4949430;28;20441;-71
2022/10/08 03:56:01;;;;;;;10.90;9.70;;;13.30;99.90;;;;;;4945509;29;20476;-72
2022/10/08 03:58:26;;;;;;;16.70;10.90;;;13.40;99.90;;;;;;4949687;29;20536;-71
2022/10/08 04:00:57;;;;;;;19.13;10.13;;;13.40;99.90;;;;;;4942990;29;20482;-72
2022/10/08 04:03:22;;;;;;;11.40;9.57;;;13.40;99.90;;;;;;4945114;29;20191;-71
2022/10/08 04:05:48;;;;;;;16.17;9.03;;;13.30;99.90;;;;;;4946834;28;20421;-71
2022/10/08 04:08:14;;;;;;;11.67;9.97;;;13.30;99.90;;;;;;4946896;28;20196;-71
2022/10/08 04:10:39;;;;;;;10.77;9.40;;;13.30;99.90;;;;;;4942997;29;20431;-72
2022/10/08 04:13:05;;;;;;;10.30;9.30;;;13.30;99.90;;;;;;4938151;28;20180;-71
2022/10/08 04:15:30;;;;;;;9.80;8.80;;;13.30;99.90;;;;;;4954628;28;20556;-71
2022/10/08 04:17:56;;;;;;;11.20;9.27;;;13.30;99.90;;;;;;4951365;28;20224;-71
2022/10/08 04:20:21;;;;;;;11.33;9.20;;;13.20;99.90;;;;;;4943821;28;20268;-70
2022/10/08 04:22:47;;;;;;;11.07;8.93;;;13.20;99.90;;;;;;4949087;29;20212;-71
2022/10/08 04:25:13;;;;;;;12.53;9.47;;;13.20;99.90;;;;;;4953999;28;20215;-71
2022/10/08 04:27:39;;;;;;;14.33;8.50;;;13.20;99.90;;;;;;4950609;28;20255;-72
2022/10/08 04:30:05;;;;;;;10.83;9.33;;;13.20;99.90;;;;;;4947730;28;20603;-71
2022/10/08 04:32:30;;;;;;;16.87;9.90;;;13.20;99.90;;;;;;4936412;29;20217;-71
2022/10/08 04:34:56;;;;;;;15.97;9.87;;;13.20;99.90;;;;;;4953437;28;20492;-71
2022/10/08 04:37:21;;;;;;;10.53;9.43;;;13.20;99.90;;;;;;4943159;28;20558;-72
2022/10/08 04:39:47;;;;;;;14.73;10.43;;;13.20;99.90;;;;;;4951493;28;20200;-71
2022/10/08 04:42:12;;;;;;;10.87;9.70;;;13.20;99.90;;;;;;4953669;28;20209;-72
2022/10/08 04:44:38;;;;;;;10.70;9.67;;;13.30;99.90;;;;;;4949093;28;20221;-72
2022/10/08 04:47:03;;;;;;;13.90;10.33;;;13.30;99.90;;;;;;4945787;28;20554;-72
2022/10/08 04:49:29;;;;;;;10.00;9.00;;;13.30;99.90;;;;;;4948262;28;20187;-71
2022/10/08 04:51:54;;;;;;;10.73;9.33;;;13.30;99.90;;;;;;4943201;28;20666;-70
2022/10/08 04:54:20;;;;;;;10.90;9.57;;;13.30;99.90;;;;;;4949717;28;20196;-71
2022/10/08 04:56:46;;;;;;;14.20;10.30;;;13.30;99.90;;;;;;4944562;28;20189;-71
2022/10/08 04:59:11;;;;;;;10.73;9.07;;;13.30;99.90;;;;;;4952448;28;20243;-71
2022/10/08 05:01:37;;;;;;;13.30;10.70;;;13.20;99.90;;;;;;4949088;28;20583;-71
2022/10/08 05:04:03;;;;;;;13.90;11.63;;;13.20;99.90;;;;;;4950412;29;20215;-71
2022/10/08 05:06:30;;;;;;;13.57;11.10;;;13.20;99.90;;;;;;4945322;29;20247;-71
2022/10/08 05:08:58;;;;;;;12.33;10.33;;;13.10;99.90;;;;;;4942880;28;20182;-72
2022/10/08 05:11:25;;;;;;;13.60;10.80;;;13.10;99.90;;;;;;4946529;29;20456;-71
2022/10/08 05:13:53;;;;;;;21.10;11.17;;;13.10;99.90;;;;;;4943634;29;20428;-71
2022/10/08 05:16:19;;;;;;;11.70;9.03;;;13.10;99.90;;;;;;4949376;28;20447;-71
2022/10/08 05:18:45;;;;;;;18.63;11.13;;;13.10;99.90;;;;;;4950657;29;20428;-71
2022/10/08 05:21:14;;;;;;;13.00;10.17;;;13.10;99.90;;;;;;4947960;28;20538;-71
2022/10/08 05:23:43;;;;;;;18.47;10.40;;;13.10;99.90;;;;;;4946712;29;20473;-71
2022/10/08 05:26:24;;;;;;;15.27;9.17;;;13.10;99.90;;;;;;4944516;29;20451;-71
2022/10/08 05:28:53;;;;;;;11.37;9.83;;;13.00;99.90;;;;;;4953526;28;20412;-71
2022/10/08 05:31:19;;;;;;;13.77;9.17;;;13.00;99.90;;;;;;4948841;28;20464;-71
2022/10/08 05:33:44;;;;;;;13.20;9.50;;;12.90;99.90;;;;;;4945423;28;20432;-71
2022/10/08 05:36:21;;;;;;;11.73;8.97;;;12.90;99.90;;;;;;4951872;28;20216;-72
2022/10/08 05:38:47;;;;;;;11.00;9.53;;;12.80;99.90;;;;;;4941115;29;20648;-71
2022/10/08 05:41:17;;;;;;;10.97;9.83;;;12.80;99.90;;;;;;4948474;28;20479;-71
2022/10/08 05:43:43;;;;;;;11.57;10.23;;;12.70;99.90;;;;;;4942188;29;20465;-72
2022/10/08 05:46:09;;;;;;;9.30;8.23;;;12.70;99.90;;;;;;4950790;28;20483;-71
2022/10/08 05:48:35;;;;;;;13.07;10.10;;;12.70;99.90;;;;;;4949252;28;20781;-70
2022/10/08 05:51:09;;;;;;;20.70;9.87;;;12.60;99.90;;;;;;4954074;28;20444;-70
2022/10/08 05:53:36;;;;;;;15.80;10.60;;;12.60;99.90;;;;;;4945114;29;20192;-70
2022/10/08 05:56:04;;;;;;;14.30;10.33;;;12.60;99.90;;;;;;4953505;29;20948;-71
2022/10/08 05:58:31;;;;;;;12.80;10.37;;;12.70;99.90;;;;;;4945915;29;20436;-71
2022/10/08 06:00:58;;;;;;;20.23;10.10;;;12.70;99.90;;;;;;4953193;29;20444;-71
2022/10/08 06:03:24;;;;;;;12.80;10.17;;;12.70;99.90;;;;;;4952110;29;20430;-71
2022/10/08 06:05:49;;;;;;;12.87;10.80;;;12.80;99.90;;;;;;4956773;28;20432;-71
2022/10/08 06:08:15;;;;;;;11.77;9.97;;;12.80;99.90;;;;;;4952993;28;20202;-70
2022/10/08 06:10:59;;;;;;;15.90;9.70;;;12.80;99.90;;;;;;4948232;28;20188;-71
2022/10/08 06:13:25;;;;;;;12.83;10.20;;;12.90;99.90;;;;;;4943895;29;20243;-71
2022/10/08 06:16:03;;;;;;;15.60;10.77;;;12.90;99.90;;;;;;4957418;28;20435;-72
2022/10/08 06:18:35;;;;;;;13.37;8.90;;;13.00;99.90;;;;;;4949122;28;20423;-71
2022/10/08 06:21:16;;;;;;;14.13;10.10;;;13.10;99.90;;;;;;4956579;28;20448;-71
2022/10/08 06:23:53;;;;;;;19.00;9.43;;;13.20;99.90;;;;;;4947834;28;20459;-71
2022/10/08 06:26:21;;;;;;;12.53;10.73;;;13.20;99.90;;;;;;4950287;28;20420;-74
2022/10/08 06:28:47;;;;;;;12.70;9.30;;;13.30;99.90;;;;;;4949939;29;20445;-68
2022/10/08 06:31:13;;;;;;;12.43;9.70;;;13.30;99.90;;;;;;4952976;28;20491;-71
2022/10/08 06:33:39;;;;;;;13.43;9.70;;;13.40;99.90;;;;;;4947892;28;20447;-71
2022/10/08 06:36:17;;;;;;;13.50;9.23;;;13.50;99.90;;;;;;4945158;28;20520;-71
2022/10/08 06:38:54;;;;;;;12.20;8.43;;;13.60;99.90;;;;;;4945254;29;20192;-70
2022/10/08 06:41:20;;;;;;;12.10;8.40;;;13.70;99.90;;;;;;4947599;28;20439;-72
2022/10/08 06:43:47;;;;;;;10.30;9.20;;;13.90;99.90;;;;;;4946421;28;20472;-71
2022/10/08 06:46:13;;;;;;;13.30;8.63;;;14.20;99.90;;;;;;4944197;28;20249;-71
2022/10/08 06:48:38;;;;;;;10.43;8.00;;;14.50;99.90;;;;;;4953818;28;20427;-70
2022/10/08 06:51:07;;;;;;;19.10;9.20;;;14.90;99.90;;;;;;4955586;28;20200;-71
2022/10/08 06:53:33;;;;;;;14.07;8.70;;;15.10;99.90;;;;;;4957304;28;20186;-71
2022/10/08 06:56:04;;;;;;;15.50;8.87;;;15.40;99.90;;;;;;4954426;28;21057;-71
2022/10/08 06:58:30;;;;;;;16.33;9.67;;;15.90;99.90;;;;;;4957319;28;20449;-72
2022/10/08 07:01:09;;;;;;;14.30;8.80;;;16.20;99.90;;;;;;4950158;28;20489;-70
2022/10/08 07:03:35;;;;;;;12.20;8.60;;;16.40;99.90;;;;;;4959072;28;20952;-72
2022/10/08 07:06:02;;;;;;;16.60;9.27;;;16.70;99.90;;;;;;4960375;28;20583;-71
2022/10/08 07:08:29;;;;;;;18.70;7.60;;;17.10;99.90;;;;;;4951788;28;20483;-72
2022/10/08 07:10:55;;;;;;;14.83;7.53;;;17.40;99.90;;;;;;4947365;28;20456;-71
2022/10/08 07:13:20;;;;;;;10.00;7.60;;;17.80;99.90;;;;;;4950049;28;20439;-72
2022/10/08 07:15:46;;;;;;;8.63;6.90;;;18.30;99.90;;;;;;4955169;28;20519;-71
2022/10/08 07:18:11;;;;;;;22.40;7.37;;;18.70;99.90;;;;;;4950537;28;20548;-71
2022/10/08 07:20:38;;;;;;;12.53;6.70;;;19.20;99.90;;;;;;4956568;28;20176;-69
2022/10/08 07:23:05;;;;;;;13.43;6.60;;;19.40;99.90;;;;;;4951796;28;20712;-72
2022/10/08 07:25:30;;;;;;;13.73;6.07;;;19.50;99.90;;;;;;4944831;29;20472;-71
2022/10/08 07:27:56;;;;;;;7.93;6.23;;;19.80;99.90;;;;;;4952856;28;21053;-71
2022/10/08 07:30:21;;;;;;;11.93;6.40;;;19.90;99.90;;;;;;4949835;28;20520;-71
2022/10/08 07:32:47;;;;;;;13.17;5.73;;;19.60;99.90;;;;;;4951370;29;20373;-71
2022/10/08 07:35:12;;;;;;;11.80;6.70;;;19.30;99.90;;;;;;4942729;29;20219;-71
2022/10/08 07:37:41;;;;;;;12.83;5.43;;;19.30;99.90;;;;;;4945703;29;20268;-71
2022/10/08 07:40:07;;;;;;;5.77;5.23;;;19.50;99.90;;;;;;4949802;28;20192;-71
2022/10/08 07:42:32;;;;;;;10.93;5.00;;;19.60;99.90;;;;;;4951432;28;20460;-71
2022/10/08 07:44:58;;;;;;;10.80;5.30;;;19.70;99.90;;;;;;4946750;28;20464;-71
2022/10/08 07:47:24;;;;;;;11.50;5.27;;;19.70;99.90;;;;;;4948231;28;20181;-71
2022/10/08 07:49:49;;;;;;;6.03;4.80;;;19.40;99.90;;;;;;4947987;29;20448;-71
2022/10/08 07:52:15;;;;;;;9.53;5.10;;;19.00;99.90;;;;;;4944040;28;20844;-71
2022/10/08 07:54:44;;;;;;;10.07;4.70;;;18.90;99.90;;;;;;4948962;28;20430;-71
2022/10/08 07:57:09;;;;;;;8.27;4.73;;;18.70;99.90;;;;;;4946948;29;20531;-71
2022/10/08 07:59:35;;;;;;;9.63;4.80;;;18.50;99.90;;;;;;4947056;28;20515;-71
2022/10/08 08:02:00;;;;;;;9.57;4.53;;;18.40;99.90;;;;;;4947881;28;20320;-71
2022/10/08 08:04:26;;;;;;;8.50;3.73;;;18.30;99.90;;;;;;4946604;28;20244;-72
2022/10/08 08:06:51;;;;;;;10.13;3.40;;;18.40;99.90;;;;;;4946396;28;20194;-71
2022/10/08 08:09:17;;;;;;;7.90;3.27;;;18.30;99.90;;;;;;4946326;28;20176;-71
2022/10/08 08:11:43;;;;;;;5.73;2.60;;;18.10;99.90;;;;;;4945369;28;20231;-71
2022/10/08 08:14:09;;;;;;;5.47;2.77;;;17.90;99.90;;;;;;4951877;28;20311;-71
2022/10/08 08:16:34;;;;;;;3.17;2.23;;;17.90;99.90;;;;;;4946671;28;20909;-71
2022/10/08 08:19:02;;;;;;;7.43;2.97;;;18.20;99.90;;;;;;4951236;29;20267;-70
2022/10/08 08:21:30;;;;;;;5.47;2.80;;;18.60;99.90;;;;;;4947949;28;20212;-72
2022/10/08 08:23:57;;;;;;;8.83;2.50;;;18.90;99.90;;;;;;4946757;29;20495;-71
2022/10/08 08:26:28;;;;;;;9.23;2.70;;;18.80;99.90;;;;;;4948023;28;20413;-71
2022/10/08 08:29:00;;;;;;;10.80;2.63;;;18.60;99.90;;;;;;4948099;29;20488;-71
2022/10/08 08:31:30;;;;;;;8.57;2.70;;;18.80;99.90;;;;;;4947266;28;20461;-72
2022/10/08 08:33:59;;;;;;;6.03;2.10;;;19.30;99.90;;;;;;4945203;29;20510;-71
2022/10/08 08:36:27;;;;;;;8.23;2.70;;;19.40;99.90;;;;;;4948807;28;20797;-71
2022/10/08 08:38:53;;;;;;;9.50;3.60;;;19.80;99.90;;;;;;4947369;29;20471;-71
2022/10/08 08:41:47;;;;;;;6.83;2.07;;;20.30;99.90;;;;;;4947584;28;20551;-71
2022/10/08 08:44:26;;;;;;;5.90;1.90;;;20.70;99.90;;;;;;4944233;29;20468;-72
2022/10/08 08:47:09;;;;;;;6.60;2.40;;;21.20;99.90;;;;;;4946083;28;20420;-72
2022/10/08 08:49:53;;;;;;;10.97;2.47;;;21.60;99.90;;;;;;4944785;28;20440;-72
2022/10/08 08:52:23;;;;;;;4.17;1.70;;;21.80;99.90;;;;;;4944065;29;20550;-72
2022/10/08 08:54:50;;;;;;;6.27;2.00;;;21.90;99.90;;;;;;4944127;29;20417;-71
2022/10/08 08:57:32;;;;;;;4.80;1.87;;;21.70;99.90;;;;;;4941300;29;20425;-72
2022/10/08 09:00:14;;;;;;;7.70;2.80;;;21.80;99.90;;;;;;4945362;28;20427;-73
2022/10/08 09:03:24;;;;;;;9.03;3.00;;;21.90;99.90;;;;;;4945362;28;20444;-73
2022/10/08 09:05:56;;;;;;;7.90;1.70;;;21.90;99.90;;;;;;4910378;29;21103;-71
2022/10/08 09:08:29;;;;;;;10.00;3.23;;;21.90;99.90;;;;;;4909972;29;20520;-71
2022/10/08 09:11:03;;;;;;;3.63;2.20;;;21.80;99.90;;;;;;4931386;29;20444;-71
2022/10/08 09:13:54;;;;;;;14.23;2.40;;;22.00;99.90;;;;;;4947364;29;20484;-71
2022/10/08 09:16:20;;;;;;;8.53;1.97;;;22.10;99.90;;;;;;4944137;29;20443;-71
2022/10/08 09:18:50;;;;;;;6.83;2.33;;;22.20;99.90;;;;;;4950990;29;20937;-71
2022/10/08 09:21:16;;;;;;;10.87;2.60;;;22.50;99.90;;;;;;4950109;28;20208;-71
2022/10/08 09:23:42;;;;;;;12.03;2.20;;;22.80;99.90;;;;;;4950142;29;20439;-73
2022/10/08 09:26:14;;;;;;;9.93;2.50;;;22.80;99.90;;;;;;4944932;29;20448;-71
2022/10/08 09:28:41;;;;;;;5.40;1.53;;;23.20;99.90;;;;;;4942580;28;20441;-71
2022/10/08 09:31:45;;;;;;;7.73;2.10;;;23.50;99.90;;;;;;4943773;29;20546;-72
2022/10/08 09:34:12;;;;;;;7.10;2.00;;;23.60;99.90;;;;;;4945786;29;20932;-71
2022/10/08 09:36:51;;;;;;;6.00;1.90;;;23.60;99.90;;;;;;4945876;28;20892;-71
2022/10/08 09:39:26;;;;;;;9.77;2.20;;;23.70;99.90;;;;;;4942709;29;20439;-71
2022/10/08 09:42:18;;;;;;;7.10;2.30;;;23.60;99.90;;;;;;4945641;28;20447;-71
2022/10/08 09:45:02;;;;;;;8.97;2.47;;;23.50;99.90;;;;;;4950002;29;20595;-73
2022/10/08 09:47:29;;;;;;;8.07;2.20;;;23.30;99.90;;;;;;4944106;28;20459;-73
2022/10/08 09:50:21;;;;;;;7.57;1.77;;;22.70;99.90;;;;;;4946875;28;20440;-73
2022/10/08 09:52:48;;;;;;;9.97;2.30;;;22.00;99.90;;;;;;4940847;28;20456;-72
2022/10/08 09:55:14;;;;;;;10.60;2.20;;;21.90;99.90;;;;;;4946062;29;20499;-72
2022/10/08 09:57:46;;;;;;;4.27;2.53;;;22.30;99.90;;;;;;4944006;28;20436;-73
2022/10/08 10:00:24;;;;;;;12.03;2.20;;;22.60;99.90;;;;;;4943776;29;20203;-72
2022/10/08 10:02:55;;;;;;;13.50;3.30;;;23.00;99.90;;;;;;4936922;28;21016;-73
2022/10/08 10:05:24;;;;;;;5.40;2.23;;;23.60;99.90;;;;;;4953169;28;20808;-73
2022/10/08 10:07:50;;;;;;;3.97;1.70;;;23.60;99.90;;;;;;4945371;28;20440;-72
2022/10/08 10:10:21;;;;;;;4.47;1.77;;;23.50;99.90;;;;;;4952904;29;20424;-72
2022/10/08 10:12:53;;;;;;;5.43;1.70;;;23.20;99.90;;;;;;4944539;28;20440;-72
2022/10/08 10:15:23;;;;;;;4.50;1.50;;;23.00;99.90;;;;;;4946073;29;20428;-72
2022/10/08 10:17:59;;;;;;;7.00;2.83;;;23.30;99.90;;;;;;4950007;29;20452;-72
2022/10/08 10:20:35;;;;;;;7.20;2.00;;;23.60;99.90;;;;;;4944964;28;20451;-72
2022/10/08 10:23:12;;;;;;;10.83;3.07;;;23.30;99.90;;;;;;4945081;28;20447;-72
2022/10/08 10:25:45;;;;;;;6.50;2.00;;;23.40;99.90;;;;;;4952085;29;20550;-72
2022/10/08 10:28:36;;;;;;;3.40;2.30;;;23.70;99.90;;;;;;4944760;29;20475;-73
2022/10/08 10:31:07;;;;;;;7.70;2.03;;;23.50;99.90;;;;;;4944094;29;20443;-72
2022/10/08 10:33:43;;;;;;;6.33;2.43;;;23.60;99.90;;;;;;4948952;28;20458;-73
2022/10/08 10:36:13;;;;;;;13.70;2.50;;;23.60;99.90;;;;;;4949355;29;20436;-73
2022/10/08 10:39:09;;;;;;;6.30;1.97;;;23.60;99.90;;;;;;4949241;29;20445;-71
2022/10/08 10:41:53;;;;;;;9.50;2.00;;;23.60;99.90;;;;;;4943820;29;20520;-74
2022/10/08 10:44:27;;;;;;;4.27;1.80;;;23.80;99.90;;;;;;4940686;29;20459;-73
2022/10/08 10:46:58;;;;;;;8.67;2.27;;;23.60;99.90;;;;;;4952143;29;20463;-74
2022/10/08 10:49:33;;;;;;;11.43;2.03;;;23.10;99.90;;;;;;4950500;28;20421;-73
2022/10/08 10:52:05;;;;;;;7.40;2.67;;;23.20;99.90;;;;;;4954987;29;20443;-73
2022/10/08 10:55:12;;;;;;;5.07;1.70;;;23.10;99.90;;;;;;4946243;28;20444;-73
2022/10/08 10:57:46;;;;;;;4.50;1.93;;;23.40;99.90;;;;;;4942407;28;20451;-72
2022/10/08 11:00:32;;;;;;;12.80;1.80;;;23.30;99.90;;;;;;4947514;29;20416;-73
2022/10/08 11:03:32;;;;;;;8.57;2.17;;;23.10;99.90;;;;;;4953599;29;20469;-73
2022/10/08 11:06:08;;;;;;;4.10;1.60;;;22.60;99.90;;;;;;4949634;28;20428;-72
2022/10/08 11:08:51;;;;;;;6.57;1.30;;;22.50;99.90;;;;;;4948318;29;20446;-73
2022/10/08 11:11:28;;;;;;;4.10;2.67;;;22.40;99.90;;;;;;4943952;29;20885;-73
2022/10/08 11:14:38;;;;;;;4.57;1.20;;;22.10;99.90;;;;;;4952134;29;20518;-73
2022/10/08 11:17:34;;;;;;;4.77;2.43;;;22.10;99.90;;;;;;4913916;29;20570;-74
2022/10/08 11:20:24;;;;;;;5.87;1.90;;;21.80;99.90;;;;;;4907449;29;20439;-72
2022/10/08 11:23:09;;;;;;;5.43;1.83;;;22.10;99.90;;;;;;4938226;29;20824;-73
2022/10/08 11:25:54;;;;;;;4.40;1.93;;;22.10;99.90;;;;;;4951708;29;20463;-72
2022/10/08 11:28:28;;;;;;;4.00;1.13;;;22.00;99.90;;;;;;4945180;29;20409;-73
2022/10/08 11:31:33;;;;;;;8.57;1.83;;;21.90;99.90;;;;;;4952419;29;20734;-74
2022/10/08 11:34:00;;;;;;;5.43;1.43;;;21.70;99.90;;;;;;4953052;29;20431;-73
2022/10/08 11:36:40;;;;;;;4.87;1.43;;;21.70;99.90;;;;;;4953391;29;20451;-72
2022/10/08 11:39:30;;;;;;;4.77;1.40;;;21.70;99.90;;;;;;4951077;29;20424;-73
2022/10/08 11:42:41;;;;;;;3.00;1.30;;;21.80;99.90;;;;;;4945461;29;20536;-72
2022/10/08 11:45:44;;;;;;;8.70;1.83;;;21.40;99.90;;;;;;4954618;28;20479;-72
2022/10/08 11:48:29;;;;;;;2.80;1.30;;;21.30;99.90;;;;;;4946958;29;20437;-72
2022/10/08 11:51:17;;;;;;;12.47;1.87;;;21.30;99.90;;;;;;4948594;29;20543;-73
2022/10/08 11:54:05;;;;;;;8.17;1.50;;;20.80;99.90;;;;;;4950071;29;20437;-73
2022/10/08 11:56:33;;;;;;;5.77;1.60;;;20.70;99.90;;;;;;4948753;28;20472;-72
2022/10/08 11:59:05;;;;;;;10.90;1.93;;;20.70;99.90;;;;;;4951539;29;20936;-71
2022/10/08 12:01:31;;;;;;;5.00;1.90;;;20.70;99.90;;;;;;4949657;29;20438;-72
2022/10/08 12:04:06;;;;;;;2.60;1.40;;;20.80;99.90;;;;;;4949714;28;20472;-72
2022/10/08 12:06:33;;;;;;;7.97;1.33;;;20.90;99.90;;;;;;4946901;28;20328;-72
2022/10/08 12:09:07;;;;;;;5.23;1.50;;;20.90;99.90;;;;;;4949830;28;20447;-72
2022/10/08 12:11:36;;;;;;;10.47;2.20;;;20.90;99.90;;;;;;4949425;29;20527;-72
2022/10/08 12:14:21;;;;;;;3.73;1.40;;;20.80;99.90;;;;;;4953320;28;20796;-74
2022/10/08 12:16:47;;;;;;;5.80;1.30;;;20.60;99.90;;;;;;4946093;29;20425;-73
2022/10/08 12:19:31;;;;;;;5.07;1.60;;;20.50;99.90;;;;;;4948310;28;20475;-74
2022/10/08 12:22:01;;;;;;;11.13;2.23;;;20.60;99.90;;;;;;4944704;29;20209;-71
2022/10/08 12:24:36;;;;;;;4.73;1.67;;;20.60;99.90;;;;;;4950320;28;20476;-72
2022/10/08 12:27:17;;;;;;;2.40;1.00;;;20.60;99.90;;;;;;4951296;28;20427;-71
2022/10/08 12:30:13;;;;;;;3.80;1.20;;;20.60;99.90;;;;;;4949310;29;20903;-70
2022/10/08 12:32:38;;;;;;;5.10;1.43;;;20.50;99.90;;;;;;4937710;29;20500;-73
2022/10/08 12:35:05;;;;;;;4.47;0.93;;;20.30;99.90;;;;;;4945576;29;20436;-72
2022/10/08 12:38:12;;;;;;;6.90;1.43;;;20.20;99.90;;;;;;4945156;28;20190;-74
2022/10/08 12:40:44;;;;;;;3.73;1.50;;;20.10;99.90;;;;;;4945050;29;20447;-74
2022/10/08 12:43:24;;;;;;;4.00;1.77;;;19.80;99.90;;;;;;4946052;29;20423;-73
2022/10/08 12:45:55;;;;;;;2.10;1.00;;;19.70;99.90;;;;;;4945232;28;20767;-71
2022/10/08 12:48:35;;;;;;;6.80;1.20;;;19.70;99.90;;;;;;4950445;28;20833;-71
2022/10/08 12:51:18;;;;;;;3.37;1.30;;;19.60;99.90;;;;;;4945697;28;20471;-72
2022/10/08 12:53:45;;;;;;;3.30;1.07;;;19.20;99.90;;;;;;4947634;28;20432;-72
2022/10/08 12:56:17;;;;;;;4.10;1.50;;;19.00;99.90;;;;;;4950952;28;20508;-72
2022/10/08 12:58:46;;;;;;;6.47;1.23;;;18.90;99.90;;;;;;4950476;28;21123;-73
2022/10/08 13:01:14;;;;;;;7.60;1.53;;;18.90;99.90;;;;;;4942694;29;20805;-69
2022/10/08 13:03:39;;;;;;;4.23;1.10;;;18.80;99.90;;;;;;4945813;28;20428;-72
2022/10/08 13:06:26;;;;;;;4.53;1.43;;;18.80;99.90;;;;;;4944056;28;20438;-72
2022/10/08 13:08:52;;;;;;;7.30;1.80;;;18.90;99.90;;;;;;4947086;28;20190;-73
2022/10/08 13:11:18;;;;;;;3.73;0.90;;;19.00;99.90;;;;;;4946459;29;20527;-72
2022/10/08 13:13:49;;;;;;;5.43;1.10;;;18.90;99.90;;;;;;4945408;28;20853;-73
2022/10/08 13:16:22;;;;;;;4.10;1.13;;;18.90;99.90;;;;;;4944722;29;20416;-72
2022/10/08 13:18:53;;;;;;;5.50;1.27;;;18.90;99.90;;;;;;4952773;28;20423;-74
2022/10/08 13:21:31;;;;;;;3.33;1.00;;;18.90;99.90;;;;;;4938475;29;20471;-72
2022/10/08 13:24:19;;;;;;;3.67;1.10;;;18.90;99.90;;;;;;4946681;29;20463;-73
2022/10/08 13:26:48;;;;;;;4.87;1.30;;;18.90;99.90;;;;;;4947048;29;20446;-72
2022/10/08 13:29:20;;;;;;;4.53;0.90;;;18.90;99.90;;;;;;4944541;28;20469;-73
2022/10/08 13:32:12;;;;;;;2.70;1.17;;;19.00;99.90;;;;;;4946442;28;20980;-72
2022/10/08 13:34:38;;;;;;;5.20;0.90;;;19.00;99.90;;;;;;4945061;28;20439;-72
2022/10/08 13:37:22;;;;;;;5.40;1.03;;;19.00;99.90;;;;;;4949836;29;20436;-72
2022/10/08 13:40:09;;;;;;;1.80;1.20;;;19.00;99.90;;;;;;4949502;29;20185;-72
2022/10/08 13:42:47;;;;;;;3.90;1.40;;;19.00;99.90;;;;;;4942981;28;20476;-72
2022/10/08 13:45:22;;;;;;;5.07;1.40;;;19.20;99.90;;;;;;4941884;29;20468;-71
2022/10/08 13:47:48;;;;;;;5.03;1.27;;;19.10;99.90;;;;;;4944743;29;20444;-72
2022/10/08 13:50:14;;;;;;;5.43;1.20;;;19.10;99.90;;;;;;4945544;28;20937;-72
2022/10/08 13:52:44;;;;;;;4.03;1.17;;;19.00;99.90;;;;;;4945476;28;20572;-71
2022/10/08 13:55:21;;;;;;;6.03;1.43;;;19.00;99.90;;;;;;4952544;29;20519;-71
2022/10/08 13:57:47;;;;;;;5.53;1.50;;;18.90;99.90;;;;;;4945287;28;20435;-72
2022/10/08 14:00:13;;;;;;;6.70;1.00;;;18.80;99.90;;;;;;4948877;28;20447;-72
2022/10/08 14:02:39;;;;;;;5.00;1.60;;;18.80;99.90;;;;;;4941700;28;20417;-71
2022/10/08 14:05:05;;;;;;;4.70;1.10;;;18.70;99.90;;;;;;4942700;29;20728;-71
2022/10/08 14:07:33;;;;;;;5.70;1.03;;;18.60;99.90;;;;;;4943571;28;20269;-70
2022/10/08 14:10:01;;;;;;;3.73;1.00;;;18.60;99.90;;;;;;4952548;28;20188;-70
2022/10/08 14:12:31;;;;;;;6.03;1.00;;;18.60;99.90;;;;;;4951283;28;20531;-70
2022/10/08 14:14:57;;;;;;;1.53;1.13;;;18.30;99.90;;;;;;4953184;28;20443;-72
2022/10/08 14:17:22;;;;;;;3.43;1.10;;;18.30;99.90;;;;;;4950987;29;20425;-71
2022/10/08 14:19:49;;;;;;;11.70;1.50;;;18.00;99.90;;;;;;4952467;29;20941;-71
2022/10/08 17:33:54;;;;;;;5.67;1.67;;;13.40;99.90;;;;;;5064278;28;20985;-70
2022/10/08 17:36:22;;;;;;;7.70;1.80;;;13.20;99.90;;;;;;5068037;28;20540;-73
2022/10/08 17:38:51;;;;;;;4.07;1.70;;;13.10;99.90;;;;;;5062130;28;20260;-72
2022/10/08 17:41:18;;;;;;;4.10;1.63;;;13.00;99.90;;;;;;5052367;28;20530;-71
2022/10/08 17:43:44;;;;;;;5.67;1.47;;;12.90;99.90;;;;;;5047667;28;20771;-72